Time;durP1;ratioP1;P1;durP2;ratioP2;P2;SDS_P1;SDS_P2;PMS_P1;PMS_P2;Temp;Humidity;BMP_temperature;BMP_pressure;BME280_temperature;BME280_humidity;BME280_pressure;Samples;Min_cycle;Max_cycle;Signal;HPM_P1;HPM_P2
2021/10/15 00:00:06;;;;;;;16.33;6.47;;;;;;;14.60;100.00;100603.59;5032646;28;20072;-69
2021/10/15 00:02:37;;;;;;;14.38;6.47;;;;;;;14.59;100.00;100590.44;5026644;28;20041;-70
2021/10/15 00:05:04;;;;;;;13.95;6.28;;;;;;;14.58;100.00;100591.59;5029998;28;20037;-68
2021/10/15 00:07:29;;;;;;;16.30;5.70;;;;;;;14.59;100.00;100585.81;5030005;28;20436;-68
2021/10/15 00:09:54;;;;;;;17.00;6.20;;;;;;;14.55;100.00;100593.16;5021661;28;20116;-70
2021/10/15 00:12:20;;;;;;;13.77;6.35;;;;;;;14.58;100.00;100595.06;5012050;28;20068;-67
2021/10/15 00:14:45;;;;;;;15.93;6.90;;;;;;;14.62;100.00;100584.25;5023856;28;20437;-66
2021/10/15 00:17:11;;;;;;;12.02;5.65;;;;;;;14.63;100.00;100577.69;5028352;28;20389;-70
2021/10/15 00:19:36;;;;;;;15.40;6.07;;;;;;;14.64;100.00;100585.41;5028161;28;20046;-67
2021/10/15 00:22:02;;;;;;;12.35;5.80;;;;;;;14.68;100.00;100583.50;5030365;28;20037;-66
2021/10/15 00:24:28;;;;;;;21.20;7.20;;;;;;;14.69;100.00;100570.72;5019564;28;20481;-68
2021/10/15 00:26:53;;;;;;;13.20;6.55;;;;;;;14.59;100.00;100564.13;5031510;28;20033;-67
2021/10/15 00:29:19;;;;;;;15.77;6.85;;;;;;;14.65;100.00;100556.38;5029879;28;20026;-70
2021/10/15 00:31:45;;;;;;;14.77;6.97;;;;;;;14.64;100.00;100557.53;5034503;28;20025;-67
2021/10/15 00:34:10;;;;;;;13.85;6.63;;;;;;;14.72;100.00;100567.22;5033651;28;20033;-68
2021/10/15 00:36:35;;;;;;;16.17;7.63;;;;;;;14.65;100.00;100554.47;5033614;28;20359;-69
2021/10/15 00:39:01;;;;;;;14.50;6.28;;;;;;;14.58;100.00;100548.22;5030617;28;20037;-73
2021/10/15 00:41:27;;;;;;;15.85;6.57;;;;;;;14.61;100.00;100544.75;5033375;28;20056;-68
2021/10/15 00:44:04;;;;;;;16.40;7.63;;;;;;;14.63;100.00;100542.44;5015847;28;20041;-67
2021/10/15 00:46:30;;;;;;;16.63;7.05;;;;;;;14.59;100.00;100537.00;5027773;28;20056;-68
2021/10/15 00:48:56;;;;;;;19.63;7.18;;;;;;;14.59;100.00;100541.66;5032416;28;20033;-67
2021/10/15 00:51:21;;;;;;;20.80;8.57;;;;;;;14.63;100.00;100526.19;5033495;28;20045;-66
2021/10/15 00:53:47;;;;;;;18.90;8.20;;;;;;;14.59;100.00;100522.69;5013785;28;20530;-66
2021/10/15 00:56:13;;;;;;;20.88;8.18;;;;;;;14.57;100.00;100533.13;5029173;28;20056;-68
2021/10/15 00:58:39;;;;;;;22.10;9.30;;;;;;;14.56;100.00;100518.78;5033068;28;20044;-67
2021/10/15 01:01:04;;;;;;;20.02;8.57;;;;;;;14.52;100.00;100509.88;5032253;28;20037;-70
2021/10/15 01:03:30;;;;;;;16.27;7.90;;;;;;;14.55;100.00;100517.25;5028911;28;20726;-68
2021/10/15 01:05:55;;;;;;;22.10;9.00;;;;;;;14.52;100.00;100512.59;5028826;28;20078;-68
2021/10/15 01:08:21;;;;;;;26.27;8.98;;;;;;;14.56;100.00;100505.25;5028424;28;20025;-66
2021/10/15 01:10:48;;;;;;;21.85;8.98;;;;;;;14.53;100.00;100492.47;5031819;28;20030;-71
2021/10/15 01:13:16;;;;;;;26.92;9.38;;;;;;;14.56;100.00;100493.63;5016035;28;20072;-69
2021/10/15 01:15:41;;;;;;;23.13;9.80;;;;;;;14.53;100.00;100476.22;5034107;28;20029;-69
2021/10/15 01:18:14;;;;;;;21.42;9.20;;;;;;;14.55;100.00;100481.25;5031815;28;20044;-67
2021/10/15 01:20:40;;;;;;;20.67;9.63;;;;;;;14.56;100.00;100472.72;5027506;28;20048;-68
2021/10/15 01:23:06;;;;;;;24.60;9.95;;;;;;;14.54;100.00;100471.59;5031816;28;20037;-67
2021/10/15 01:25:34;;;;;;;27.83;9.60;;;;;;;14.52;100.00;100471.19;5014821;28;20049;-68
2021/10/15 01:28:00;;;;;;;26.23;10.27;;;;;;;14.48;100.00;100476.59;5029299;28;20041;-70
2021/10/15 01:30:26;;;;;;;26.63;10.38;;;;;;;14.50;100.00;100468.84;5030727;28;20034;-67
2021/10/15 01:32:51;;;;;;;25.05;10.80;;;;;;;14.48;100.00;100467.69;5032468;28;20528;-71
2021/10/15 01:35:17;;;;;;;23.05;9.43;;;;;;;14.50;100.00;100470.81;5032185;28;20388;-67
2021/10/15 01:37:43;;;;;;;24.13;10.55;;;;;;;14.52;100.00;100463.81;5015183;28;20056;-66
2021/10/15 01:40:10;;;;;;;20.60;8.75;;;;;;;14.53;100.00;100467.31;5031423;28;20095;-68
2021/10/15 01:42:54;;;;;;;23.70;10.10;;;;;;;14.52;100.00;100461.09;5032380;28;20095;-68
2021/10/15 01:45:24;;;;;;;19.27;8.20;;;;;;;14.56;100.00;100447.56;5031610;28;20111;-67
2021/10/15 01:47:50;;;;;;;23.73;9.48;;;;;;;14.54;100.00;100453.38;5012404;28;20045;-67
2021/10/15 01:50:15;;;;;;;24.08;9.40;;;;;;;14.54;100.00;100441.78;5031374;28;20036;-67
2021/10/15 01:52:41;;;;;;;20.15;9.57;;;;;;;14.51;100.00;100439.81;5029519;28;20033;-66
2021/10/15 01:55:08;;;;;;;25.73;9.98;;;;;;;14.53;100.00;100432.84;5014296;28;20486;-67
2021/10/15 01:57:34;;;;;;;24.05;9.60;;;;;;;14.48;100.00;100429.75;5031203;28;20041;-67
2021/10/15 02:00:00;;;;;;;21.80;8.52;;;;;;;14.44;100.00;100427.03;5024269;28;20037;-67
2021/10/15 02:02:25;;;;;;;20.83;8.85;;;;;;;14.42;100.00;100413.88;5031042;28;20393;-68
2021/10/15 02:04:52;;;;;;;16.23;7.68;;;;;;;14.48;100.00;100399.94;5030694;28;20094;-67
2021/10/15 02:07:18;;;;;;;19.00;8.75;;;;;;;14.55;100.00;100411.56;5031846;28;20037;-67
2021/10/15 02:09:44;;;;;;;19.20;9.18;;;;;;;14.53;100.00;100403.03;5020722;28;20021;-67
2021/10/15 02:12:09;;;;;;;18.63;8.27;;;;;;;14.52;100.00;100395.31;5031774;28;20049;-67
2021/10/15 02:14:35;;;;;;;22.52;8.52;;;;;;;14.52;100.00;100381.75;5028329;28;20079;-67
2021/10/15 02:17:00;;;;;;;20.35;8.65;;;;;;;14.55;100.00;100379.03;5031014;28;20052;-67
2021/10/15 02:19:26;;;;;;;19.25;8.38;;;;;;;14.56;100.00;100363.53;5024520;28;20032;-68
2021/10/15 02:21:52;;;;;;;16.88;8.10;;;;;;;14.53;100.00;100358.91;5031397;28;20116;-68
2021/10/15 02:24:18;;;;;;;22.00;8.93;;;;;;;14.57;100.00;100356.97;5027001;28;20071;-67
2021/10/15 02:26:43;;;;;;;20.83;8.77;;;;;;;14.51;100.00;100353.09;5030771;28;20060;-67
2021/10/15 02:29:09;;;;;;;19.52;7.93;;;;;;;14.52;100.00;100355.41;5030694;28;20025;-68
2021/10/15 02:31:34;;;;;;;16.35;7.63;;;;;;;14.53;100.00;100348.06;5031540;28;20037;-67
2021/10/15 02:34:00;;;;;;;16.67;8.00;;;;;;;14.51;100.00;100344.97;5027567;28;20044;-67
2021/10/15 02:36:25;;;;;;;17.33;7.80;;;;;;;14.48;100.00;100335.66;5031026;28;20034;-67
2021/10/15 02:38:51;;;;;;;16.40;7.07;;;;;;;14.49;100.00;100337.22;5028015;28;20036;-68
2021/10/15 02:41:16;;;;;;;17.30;7.47;;;;;;;14.51;100.00;100324.06;5031318;28;20060;-67
2021/10/15 02:43:44;;;;;;;18.98;7.47;;;;;;;14.42;100.00;100326.38;5030956;28;20069;-68
2021/10/15 02:46:11;;;;;;;18.30;7.38;;;;;;;14.44;100.00;100315.94;5031428;28;20120;-67
2021/10/15 02:48:36;;;;;;;12.98;6.57;;;;;;;14.41;100.00;100309.38;5023513;28;20139;-67
2021/10/15 02:51:01;;;;;;;15.48;7.43;;;;;;;14.41;100.00;100312.09;5031209;28;20519;-67
2021/10/15 02:53:27;;;;;;;15.48;7.03;;;;;;;14.45;100.00;100310.16;5030449;28;20033;-67
2021/10/15 02:55:52;;;;;;;14.27;7.18;;;;;;;14.46;100.00;100308.97;5024562;28;20037;-67
2021/10/15 02:58:18;;;;;;;16.13;7.03;;;;;;;14.44;100.00;100302.38;5012164;28;20029;-67
2021/10/15 03:00:43;;;;;;;16.17;6.75;;;;;;;14.45;100.00;100301.25;5030402;28;20691;-66
2021/10/15 03:03:09;;;;;;;17.10;7.05;;;;;;;14.48;100.00;100303.94;5030019;28;20521;-68
2021/10/15 03:05:34;;;;;;;14.68;6.65;;;;;;;14.50;100.00;100295.41;5024781;28;20037;-69
2021/10/15 03:08:00;;;;;;;17.23;6.47;;;;;;;14.52;100.00;100292.34;5030210;28;20583;-67
2021/10/15 03:10:25;;;;;;;15.77;6.95;;;;;;;14.48;100.00;100295.03;5025638;28;20029;-67
2021/10/15 03:12:51;;;;;;;18.27;7.05;;;;;;;14.42;100.00;100289.22;5030366;28;20137;-68
2021/10/15 03:15:16;;;;;;;15.20;7.63;;;;;;;14.48;100.00;100292.31;5032245;28;20013;-67
2021/10/15 03:17:42;;;;;;;15.85;7.18;;;;;;;14.43;100.00;100290.78;5041144;28;20040;-67
2021/10/15 03:20:08;;;;;;;14.85;7.05;;;;;;;14.50;100.00;100276.44;5038815;28;20116;-67
2021/10/15 03:22:33;;;;;;;18.45;6.78;;;;;;;14.50;100.00;100278.41;5027385;28;20046;-69
2021/10/15 03:24:59;;;;;;;16.45;7.18;;;;;;;14.48;100.00;100272.59;5024793;28;20241;-66
2021/10/15 03:27:24;;;;;;;19.10;7.35;;;;;;;14.45;100.00;100269.50;5029873;28;20033;-66
2021/10/15 03:29:50;;;;;;;15.73;6.95;;;;;;;14.46;100.00;100272.97;5029116;28;20037;-70
2021/10/15 03:32:15;;;;;;;14.48;6.50;;;;;;;14.47;100.00;100263.69;5020850;28;20091;-69
2021/10/15 03:34:41;;;;;;;19.45;8.00;;;;;;;14.52;100.00;100273.38;5008292;28;20506;-66
2021/10/15 03:37:06;;;;;;;15.68;7.10;;;;;;;14.42;100.00;100262.13;5028816;28;20032;-67
2021/10/15 03:39:32;;;;;;;15.50;6.55;;;;;;;14.44;100.00;100259.81;5027173;28;20090;-68
2021/10/15 03:41:57;;;;;;;15.48;6.70;;;;;;;14.45;100.00;100255.94;5024019;28;20061;-66
2021/10/15 03:44:23;;;;;;;17.48;8.07;;;;;;;14.44;100.00;100261.75;5026105;28;20029;-66
2021/10/15 03:46:48;;;;;;;16.65;7.20;;;;;;;14.48;100.00;100251.66;5027706;28;20094;-67
2021/10/15 03:49:14;;;;;;;12.90;6.38;;;;;;;14.47;100.00;100252.84;5044939;28;20120;-66
2021/10/15 03:51:39;;;;;;;13.63;6.22;;;;;;;14.45;100.00;100244.34;5030293;28;20034;-66
2021/10/15 03:54:06;;;;;;;14.65;6.18;;;;;;;14.50;100.00;100248.59;5029558;28;20033;-67
2021/10/15 03:56:32;;;;;;;16.90;6.03;;;;;;;14.46;100.00;100243.94;5044874;28;20068;-68
2021/10/15 03:58:58;;;;;;;16.42;5.97;;;;;;;14.51;100.00;100234.66;5021063;28;20033;-66
2021/10/15 04:01:23;;;;;;;13.25;6.20;;;;;;;14.48;100.00;100223.81;5028241;28;20041;-67
2021/10/15 04:03:49;;;;;;;12.63;6.35;;;;;;;14.45;100.00;100219.94;5027907;28;20037;-70
2021/10/15 04:06:14;;;;;;;14.45;6.72;;;;;;;14.44;100.00;100232.72;5028266;28;20033;-69
2021/10/15 04:08:40;;;;;;;11.63;5.95;;;;;;;14.48;100.00;100225.34;5027142;28;20095;-67
2021/10/15 04:11:05;;;;;;;9.75;5.38;;;;;;;14.47;100.00;100214.91;5029762;28;20025;-66
2021/10/15 04:13:31;;;;;;;13.00;6.20;;;;;;;14.44;100.00;100216.47;5026188;28;20033;-66
2021/10/15 04:16:00;;;;;;;13.95;6.05;;;;;;;14.45;100.00;100218.03;5029102;28;20049;-70
2021/10/15 04:18:25;;;;;;;12.55;5.15;;;;;;;14.42;100.00;100218.78;5029189;28;20040;-67
2021/10/15 04:20:51;;;;;;;12.38;5.22;;;;;;;14.39;100.00;100207.97;5023843;28;20034;-70
2021/10/15 04:23:18;;;;;;;10.68;4.63;;;;;;;14.42;100.00;100207.94;5027916;28;20092;-67
2021/10/15 04:25:44;;;;;;;11.68;5.15;;;;;;;14.41;100.00;100202.94;5028859;28;20040;-68
2021/10/15 04:28:09;;;;;;;11.32;5.28;;;;;;;14.45;100.00;100200.97;5025124;28;20029;-67
2021/10/15 04:30:35;;;;;;;9.45;4.75;;;;;;;14.42;100.00;100199.03;5025508;28;20033;-67
2021/10/15 04:33:00;;;;;;;11.57;5.45;;;;;;;14.40;99.96;100196.72;5027273;28;20084;-67
2021/10/15 04:35:26;;;;;;;8.90;3.92;;;;;;;14.41;100.00;100186.66;5027883;28;20079;-68
2021/10/15 04:37:51;;;;;;;12.27;5.47;;;;;;;14.35;99.76;100185.53;5026643;28;20026;-66
2021/10/15 04:40:17;;;;;;;12.00;5.13;;;;;;;14.34;99.84;100168.50;5025423;28;20032;-66
2021/10/15 04:42:42;;;;;;;11.70;4.55;;;;;;;14.27;100.00;100173.94;5025412;28;20033;-73
2021/10/15 04:45:09;;;;;;;9.38;4.60;;;;;;;14.30;100.00;100175.84;5035757;28;20036;-68
2021/10/15 04:47:35;;;;;;;12.73;4.82;;;;;;;14.36;100.00;100174.28;5027868;28;20029;-66
2021/10/15 04:50:05;;;;;;;11.18;5.40;;;;;;;14.41;99.64;100165.78;5029558;28;20033;-66
2021/10/15 04:52:31;;;;;;;14.40;5.28;;;;;;;14.39;99.89;100161.91;5023532;28;20605;-66
2021/10/15 04:54:56;;;;;;;10.05;4.38;;;;;;;14.35;100.00;100153.78;5020952;28;20086;-70
2021/10/15 04:57:21;;;;;;;11.45;4.97;;;;;;;14.42;99.44;100170.00;5036448;28;20021;-66
2021/10/15 04:59:47;;;;;;;12.25;5.90;;;;;;;14.39;99.26;100154.56;5048774;28;20064;-67
2021/10/15 05:02:12;;;;;;;11.07;5.00;;;;;;;14.38;100.00;100168.50;5027933;28;20044;-69
2021/10/15 05:04:40;;;;;;;11.77;5.53;;;;;;;14.42;100.00;100169.22;5031174;28;20035;-66
2021/10/15 05:07:05;;;;;;;10.93;5.07;;;;;;;14.41;100.00;100167.69;5008044;28;20060;-68
2021/10/15 05:11:57;;;;;;;7.75;4.63;;;;;;;14.44;99.99;100150.66;5034519;28;20048;-67
2021/10/15 05:14:23;;;;;;;9.88;4.63;;;;;;;14.50;99.25;100149.09;5033248;28;20029;-69
2021/10/15 05:16:52;;;;;;;12.32;5.47;;;;;;;14.48;99.46;100145.25;5028715;28;20103;-69
2021/10/15 05:19:18;;;;;;;11.63;5.13;;;;;;;14.46;99.60;100151.81;5029638;28;20045;-69
2021/10/15 05:21:44;;;;;;;9.52;4.93;;;;;;;14.42;100.00;100136.72;5034688;28;20087;-68
2021/10/15 05:24:09;;;;;;;11.07;5.78;;;;;;;14.43;99.35;100138.28;5017251;28;20038;-69
2021/10/15 05:26:35;;;;;;;11.45;5.82;;;;;;;14.36;99.78;100125.53;5028974;28;20511;-69
2021/10/15 05:29:00;;;;;;;12.90;5.32;;;;;;;14.37;100.00;100129.00;5031085;28;20036;-69
2021/10/15 05:31:26;;;;;;;11.98;5.28;;;;;;;14.46;99.92;100126.66;5032764;28;20116;-69
2021/10/15 05:33:51;;;;;;;14.45;5.65;;;;;;;14.45;100.00;100120.47;5023930;28;20069;-69
2021/10/15 05:36:17;;;;;;;12.25;5.57;;;;;;;14.36;100.00;100114.69;5030463;28;20026;-68
2021/10/15 05:38:42;;;;;;;12.85;5.55;;;;;;;14.36;100.00;100120.09;5013968;28;20029;-69
2021/10/15 05:41:08;;;;;;;14.07;6.93;;;;;;;14.39;100.00;100108.50;5032794;28;20076;-69
2021/10/15 05:43:33;;;;;;;13.10;5.28;;;;;;;14.34;100.00;100110.84;5023421;28;20116;-69
2021/10/15 05:45:59;;;;;;;12.35;6.03;;;;;;;14.38;100.00;100098.06;5031252;28;20041;-69
2021/10/15 05:48:24;;;;;;;14.60;6.15;;;;;;;14.35;100.00;100085.28;5031830;28;20052;-69
2021/10/15 05:50:50;;;;;;;11.68;5.45;;;;;;;14.34;100.00;100097.31;5026544;28;20041;-68
2021/10/15 05:53:18;;;;;;;14.00;5.57;;;;;;;14.37;100.00;100080.25;5029185;28;20029;-68
2021/10/15 06:01:09;;;;;;;10.82;5.43;;;;;;;14.40;100.00;100082.94;5022814;28;20044;-68
2021/10/15 06:03:35;;;;;;;13.98;6.30;;;;;;;14.36;100.00;100079.47;5013081;28;20033;-68
2021/10/15 06:16:38;;;;;;;9.35;4.82;;;;;;;14.38;100.00;100071.72;5030104;28;20036;-68
2021/10/15 06:19:08;;;;;;;13.52;5.18;;;;;;;14.42;100.00;100058.94;5028282;28;20029;-68
2021/10/15 06:21:34;;;;;;;11.82;4.68;;;;;;;14.40;100.00;100057.81;5024659;28;20033;-67
2021/10/15 06:24:00;;;;;;;9.93;4.20;;;;;;;14.48;100.00;100053.88;5030875;28;20037;-67
2021/10/15 06:26:26;;;;;;;11.05;4.63;;;;;;;14.40;100.00;100050.44;5022531;28;20047;-67
2021/10/15 06:28:51;;;;;;;11.45;5.18;;;;;;;14.39;100.00;100053.53;5030944;28;20041;-67
2021/10/15 06:31:17;;;;;;;13.90;5.32;;;;;;;14.37;100.00;100067.47;5031476;28;20021;-67
2021/10/15 06:33:42;;;;;;;10.95;4.72;;;;;;;14.35;100.00;100045.44;5024168;28;20068;-67
2021/10/15 06:36:08;;;;;;;8.75;4.75;;;;;;;14.39;100.00;100042.69;5029787;28;20044;-69
2021/10/15 06:38:33;;;;;;;13.57;5.38;;;;;;;14.36;100.00;100049.66;5030799;28;20044;-68
2021/10/15 06:40:59;;;;;;;11.15;5.35;;;;;;;14.37;100.00;100048.53;5028486;28;20049;-68
2021/10/15 06:43:24;;;;;;;10.00;5.03;;;;;;;14.38;100.00;100043.88;5030671;28;20454;-68
2021/10/15 06:45:51;;;;;;;11.00;4.88;;;;;;;14.28;100.00;100045.47;5023189;28;20038;-68
2021/10/15 06:48:17;;;;;;;11.27;5.00;;;;;;;14.30;100.00;100056.66;5028889;28;20061;-68
2021/10/15 06:50:43;;;;;;;11.65;5.15;;;;;;;14.34;100.00;100052.00;5031597;28;20061;-68
2021/10/15 06:53:09;;;;;;;11.85;5.72;;;;;;;14.29;100.00;100051.66;5031146;28;20021;-67
2021/10/15 06:55:35;;;;;;;14.80;6.07;;;;;;;14.22;100.00;100038.91;5027692;28;20389;-68
2021/10/15 06:58:02;;;;;;;14.88;4.82;;;;;;;14.12;100.00;100045.13;5041707;28;20037;-69
2021/10/15 07:00:27;;;;;;;11.00;4.93;;;;;;;14.17;100.00;100049.34;5036965;28;20034;-68
2021/10/15 07:02:52;;;;;;;9.77;5.28;;;;;;;14.15;100.00;100060.56;5046391;28;20482;-68
2021/10/15 07:05:18;;;;;;;7.78;4.30;;;;;;;14.19;100.00;100095.75;5025736;28;20090;-69
2021/10/15 07:07:43;;;;;;;13.55;5.53;;;;;;;14.08;100.00;100108.56;5026274;28;20032;-69
2021/10/15 07:10:09;;;;;;;9.23;4.22;;;;;;;14.07;100.00;100120.56;5009580;28;20494;-69
2021/10/15 07:12:43;;;;;;;6.90;3.30;;;;;;;13.92;100.00;100124.47;5029916;28;20040;-68
2021/10/15 07:15:11;;;;;;;5.47;2.67;;;;;;;13.93;100.00;100147.69;5030463;28;20025;-69
2021/10/15 07:17:37;;;;;;;7.82;2.92;;;;;;;13.91;100.00;100155.41;5027179;28;20036;-69
2021/10/15 07:20:05;;;;;;;8.63;3.00;;;;;;;13.95;100.00;100161.59;5027886;28;20037;-69
2021/10/15 07:22:31;;;;;;;3.58;1.55;;;;;;;13.96;100.00;100179.38;5029074;28;20519;-68
2021/10/15 07:24:56;;;;;;;1.73;1.00;;;;;;;13.93;100.00;100196.41;5027978;28;20103;-68
2021/10/15 07:27:22;;;;;;;2.22;0.68;;;;;;;13.93;100.00;100202.59;5029551;28;20037;-69
2021/10/15 07:29:47;;;;;;;1.33;0.73;;;;;;;13.90;100.00;100211.47;5030105;28;20052;-68
2021/10/15 07:32:13;;;;;;;0.40;0.40;;;;;;;13.84;100.00;100218.44;5030656;28;20044;-68
2021/10/15 07:34:38;;;;;;;0.38;0.20;;;;;;;13.70;100.00;100234.69;5021905;28;20037;-68
2021/10/15 07:37:04;;;;;;;1.08;0.20;;;;;;;13.71;100.00;100249.75;5029348;28;20051;-68
2021/10/15 07:39:30;;;;;;;0.10;0.10;;;;;;;13.66;100.00;100266.38;5025098;28;20042;-68
2021/10/15 07:41:56;;;;;;;0.20;0.20;;;;;;;13.57;100.00;100276.78;5029024;28;20037;-67
2021/10/15 07:44:21;;;;;;;1.27;0.30;;;;;;;13.56;100.00;100291.50;5030355;28;20453;-68
2021/10/15 07:46:47;;;;;;;0.90;0.30;;;;;;;13.61;100.00;100299.22;5030547;28;20548;-68
2021/10/15 07:49:13;;;;;;;0.20;0.13;;;;;;;13.54;100.00;100299.22;5020266;28;20057;-68
2021/10/15 07:51:38;;;;;;;0.20;0.10;;;;;;;13.58;100.00;100310.81;5028996;28;20115;-68
2021/10/15 07:54:04;;;;;;;0.60;0.28;;;;;;;13.56;100.00;100302.31;5029622;28;20033;-68
2021/10/15 07:56:32;;;;;;;0.30;0.30;;;;;;;13.53;100.00;100309.25;5041862;28;20664;-69
2021/10/15 07:58:58;;;;;;;0.40;0.20;;;;;;;13.44;100.00;100316.97;5020134;28;20108;-68
2021/10/15 08:01:24;;;;;;;0.28;0.17;;;;;;;13.45;100.00;100328.56;5028280;28;20120;-69
2021/10/15 08:03:49;;;;;;;0.35;0.20;;;;;;;13.46;100.00;100332.81;5029746;28;20041;-68
2021/10/15 08:06:15;;;;;;;1.00;0.20;;;;;;;13.32;100.00;100330.03;5030272;28;20030;-68
2021/10/15 08:08:40;;;;;;;0.13;0.13;;;;;;;13.39;100.00;100338.97;5029522;28;20124;-67
2021/10/15 08:11:06;;;;;;;1.63;0.63;;;;;;;13.32;100.00;100333.53;5019338;28;20045;-69
2021/10/15 08:13:32;;;;;;;0.50;0.35;;;;;;;13.32;100.00;100348.97;5029439;28;20025;-68
2021/10/15 08:15:58;;;;;;;3.95;0.28;;;;;;;13.30;100.00;100335.84;5004662;28;20560;-69
2021/10/15 08:18:24;;;;;;;0.38;0.25;;;;;;;13.31;100.00;100350.94;5028045;28;20074;-68
2021/10/15 08:20:55;;;;;;;0.90;0.30;;;;;;;13.32;100.00;100357.09;5030043;28;20120;-69
2021/10/15 08:23:21;;;;;;;;;;;;;;;13.28;100.00;100351.69;5030244;28;20433;-68
2021/10/15 08:25:47;;;;;;;1.40;0.30;;;;;;;13.37;100.00;100349.41;5024125;28;19924;-67
2021/10/15 08:28:12;;;;;;;0.25;0.20;;;;;;;13.45;100.00;100333.97;5029008;28;20106;-69
2021/10/15 08:30:38;;;;;;;0.10;0.10;;;;;;;13.46;100.00;100341.72;5025101;28;20036;-68
2021/10/15 08:33:03;;;;;;;0.73;0.40;;;;;;;13.48;100.00;100352.16;5029571;28;20037;-67
2021/10/15 08:35:29;;;;;;;0.80;0.20;;;;;;;13.52;100.00;100359.13;5024909;28;20037;-67
2021/10/15 08:37:54;;;;;;;0.65;0.30;;;;;;;13.52;100.00;100374.56;5027140;28;20095;-69
2021/10/15 08:40:20;;;;;;;2.15;0.20;;;;;;;13.51;100.00;100379.19;5029235;28;20042;-68
2021/10/15 08:42:54;;;;;;;1.55;0.20;;;;;;;13.42;100.00;100381.50;5026187;28;20037;-68
2021/10/15 08:45:24;;;;;;;1.80;0.35;;;;;;;13.52;100.00;100377.28;5018687;28;20573;-68
2021/10/15 08:47:50;;;;;;;1.15;0.22;;;;;;;13.49;100.00;100394.28;5030894;28;20052;-67
2021/10/15 08:50:15;;;;;;;0.75;0.35;;;;;;;13.48;100.00;100403.53;5033648;28;20037;-69
2021/10/15 08:52:41;;;;;;;1.38;0.85;;;;;;;13.37;100.00;100405.44;5026546;28;20440;-68
2021/10/15 08:55:06;;;;;;;0.68;0.25;;;;;;;13.39;100.00;100406.59;5032226;28;20041;-65
2021/10/15 08:57:32;;;;;;;1.92;0.43;;;;;;;13.43;100.00;100420.16;5053528;28;20032;-65
2021/10/15 08:59:57;;;;;;;0.40;0.20;;;;;;;13.45;100.00;100425.97;5048907;28;20624;-68
2021/10/15 09:02:23;;;;;;;0.90;0.30;;;;;;;13.44;100.00;100440.63;5035061;28;20079;-68
2021/10/15 09:04:57;;;;;;;2.50;0.22;;;;;;;13.44;100.00;100454.16;5032681;28;20499;-68
2021/10/15 09:07:26;;;;;;;1.25;0.75;;;;;;;13.39;100.00;100457.22;5026340;28;20033;-68
2021/10/15 09:10:14;;;;;;;0.32;0.20;;;;;;;13.34;100.00;100444.03;5025310;28;20374;-69
2021/10/15 09:12:42;;;;;;;0.17;0.17;;;;;;;13.37;100.00;100440.59;5033503;28;20493;-68
2021/10/15 09:15:08;;;;;;;0.20;0.20;;;;;;;13.36;100.00;100420.09;5025238;28;20049;-67
2021/10/15 09:17:41;;;;;;;2.97;0.35;;;;;;;13.30;100.00;100402.69;5030599;28;20120;-67
2021/10/15 09:20:07;;;;;;;0.20;0.20;;;;;;;13.33;100.00;100410.03;5032761;28;20452;-68
2021/10/15 09:22:35;;;;;;;0.47;0.17;;;;;;;13.30;100.00;100435.91;5032978;28;20041;-68
2021/10/15 09:25:05;;;;;;;0.60;0.50;;;;;;;13.22;100.00;100464.06;5024715;28;20033;-68
2021/10/15 09:27:39;;;;;;;0.20;0.20;;;;;;;13.27;100.00;100492.69;5032335;28;20087;-68
2021/10/15 09:30:09;;;;;;;1.92;0.30;;;;;;;13.25;100.00;100492.28;5030035;28;20041;-69
2021/10/15 09:32:40;;;;;;;1.92;0.85;;;;;;;13.16;100.00;100494.56;5032692;28;20037;-69
2021/10/15 09:35:07;;;;;;;;;;;;;;;13.05;100.00;100499.88;5031026;28;20080;-68
2021/10/15 09:37:36;;;;;;;2.72;0.73;;;;;;;13.19;100.00;100499.19;5032490;28;19917;-67
2021/10/15 09:40:07;;;;;;;1.05;0.68;;;;;;;13.18;100.00;100492.25;5010549;28;20095;-68
2021/10/15 09:42:36;;;;;;;1.00;0.52;;;;;;;13.27;100.00;100496.19;5026337;28;20112;-68
2021/10/15 09:45:17;;;;;;;2.33;0.55;;;;;;;13.34;100.00;100493.50;5031261;28;20512;-67
2021/10/15 09:47:46;;;;;;;2.65;0.47;;;;;;;13.38;100.00;100482.72;5031397;28;20451;-69
2021/10/15 09:50:17;;;;;;;2.45;0.68;;;;;;;13.44;100.00;100467.69;5026591;28;20121;-68
2021/10/15 09:52:55;;;;;;;1.88;0.30;;;;;;;13.39;100.00;100503.22;5032220;28;20393;-67
2021/10/15 09:55:34;;;;;;;2.17;0.52;;;;;;;13.40;100.00;100505.53;5025654;28;20038;-67
2021/10/15 09:58:24;;;;;;;5.07;0.52;;;;;;;13.46;100.00;100519.47;5042540;28;20049;-69
2021/10/15 10:00:53;;;;;;;0.70;0.25;;;;;;;13.51;100.00;100527.25;5052169;28;20036;-67
2021/10/15 10:03:22;;;;;;;0.40;0.30;;;;;;;13.53;100.00;100533.81;5020074;28;20052;-71
2021/10/15 10:05:49;;;;;;;4.07;0.60;;;;;;;13.48;100.00;100542.31;5032093;28;20076;-66
2021/10/15 10:08:15;;;;;;;1.17;0.55;;;;;;;13.53;100.00;100536.53;5024039;28;20079;-67
2021/10/15 10:10:42;;;;;;;1.35;0.50;;;;;;;13.54;100.00;100553.53;5029538;28;20065;-67
2021/10/15 10:13:11;;;;;;;0.68;0.30;;;;;;;13.66;100.00;100545.13;5030923;28;20151;-66
2021/10/15 10:15:38;;;;;;;0.95;0.52;;;;;;;13.77;100.00;100559.47;5028172;28;20037;-66
2021/10/15 10:18:17;;;;;;;1.25;0.30;;;;;;;13.76;100.00;100560.66;5027713;28;20520;-66
2021/10/15 10:20:47;;;;;;;0.93;0.60;;;;;;;13.78;100.00;100555.59;5031076;28;20037;-68
2021/10/15 10:23:30;;;;;;;3.40;0.35;;;;;;;13.83;100.00;100557.19;5031647;28;20030;-68
2021/10/15 10:25:58;;;;;;;0.68;0.52;;;;;;;13.89;100.00;100559.19;5031488;28;20568;-66
2021/10/15 10:28:26;;;;;;;6.13;0.57;;;;;;;13.98;100.00;100548.75;5031391;28;20062;-66
2021/10/15 10:30:55;;;;;;;1.95;0.93;;;;;;;14.15;100.00;100550.00;5027754;28;20041;-66
2021/10/15 10:33:22;;;;;;;4.15;0.70;;;;;;;14.29;100.00;100560.91;5031600;28;20021;-67
2021/10/15 10:35:50;;;;;;;4.95;0.70;;;;;;;14.42;100.00;100552.06;5027627;28;20032;-69
2021/10/15 10:38:25;;;;;;;6.50;0.68;;;;;;;14.58;100.00;100549.00;5030960;28;20033;-68
2021/10/15 10:41:00;;;;;;;3.63;0.88;;;;;;;14.65;100.00;100562.59;5026005;28;20032;-66
2021/10/15 10:43:46;;;;;;;2.00;0.85;;;;;;;14.79;100.00;100562.59;5030044;28;20033;-69
2021/10/15 10:46:14;;;;;;;5.28;0.70;;;;;;;14.88;100.00;100567.66;5016946;28;20418;-69
2021/10/15 10:48:49;;;;;;;6.93;0.70;;;;;;;14.88;100.00;100563.00;5026750;28;20039;-68
2021/10/15 10:51:20;;;;;;;3.53;0.63;;;;;;;14.99;99.76;100566.50;5025758;28;20505;-66
2021/10/15 10:54:08;;;;;;;2.75;0.90;;;;;;;15.07;98.99;100572.72;5031247;28;20040;-67
2021/10/15 10:56:40;;;;;;;5.10;0.57;;;;;;;15.13;98.37;100560.31;5032684;28;20490;-67
2021/10/15 11:01:58;;;;;;;3.50;0.60;;;;;;;15.26;96.83;100575.03;5051127;28;20097;-65
2021/10/15 11:04:29;;;;;;;1.90;0.68;;;;;;;15.32;96.62;100571.56;5022980;28;20041;-66
2021/10/15 11:06:58;;;;;;;2.95;0.63;;;;;;;15.32;95.95;100573.50;5030436;28;20037;-68
2021/10/15 11:09:29;;;;;;;5.25;0.70;;;;;;;15.36;96.47;100595.97;4992363;28;20139;-68
2021/10/15 11:11:54;;;;;;;4.00;0.60;;;;;;;15.30;95.15;100592.88;5027813;28;20037;-68
2021/10/15 11:14:22;;;;;;;5.97;1.05;;;;;;;15.29;93.52;100587.84;5030297;28;20037;-69
2021/10/15 11:16:48;;;;;;;2.00;0.30;;;;;;;15.25;92.90;100600.63;5028469;28;20405;-67
2021/10/15 11:19:20;;;;;;;2.65;0.65;;;;;;;15.24;93.06;100594.44;5028436;28;20025;-68
2021/10/15 11:21:59;;;;;;;4.00;0.30;;;;;;;15.36;93.58;100593.25;5029921;28;20163;-69
2021/10/15 11:24:24;;;;;;;1.60;0.47;;;;;;;15.49;94.77;100604.50;5028998;28;20129;-66
2021/10/15 11:26:50;;;;;;;0.82;0.47;;;;;;;15.55;93.07;100606.47;5026117;28;20221;-68
2021/10/15 11:29:15;;;;;;;1.98;0.65;;;;;;;15.67;92.28;100608.78;5015499;28;20041;-67
2021/10/15 11:31:51;;;;;;;2.40;0.60;;;;;;;15.61;91.05;100621.19;5029290;28;20104;-68
2021/10/15 11:34:17;;;;;;;2.30;0.32;;;;;;;15.60;90.80;100627.03;5027271;28;20516;-67